sensor_id;sensor_type;location;lat;lon;timestamp;P1;durP1;ratioP1;P2;durP2;ratioP2
45318;SDS011;31057;48.498;32.260;2023-02-01T00:13:40;133.07;;;82.40;;
45318;SDS011;31057;48.498;32.260;2023-02-01T00:15:43;115.93;;;68.68;;
45318;SDS011;31057;48.498;32.260;2023-02-01T00:17:44;110.57;;;65.22;;
45318;SDS011;31057;48.498;32.260;2023-02-01T00:19:46;106.63;;;61.63;;
45318;SDS011;31057;48.498;32.260;2023-02-01T00:21:49;103.28;;;60.03;;
45318;SDS011;31057;48.498;32.260;2023-02-01T00:23:51;102.30;;;58.50;;
45318;SDS011;31057;48.498;32.260;2023-02-01T00:25:53;102.60;;;58.05;;
45318;SDS011;31057;48.498;32.260;2023-02-01T00:27:55;98.32;;;57.17;;
45318;SDS011;31057;48.498;32.260;2023-02-01T00:29:59;104.53;;;61.63;;
45318;SDS011;31057;48.498;32.260;2023-02-01T00:32:02;95.35;;;55.28;;
45318;SDS011;31057;48.498;32.260;2023-02-01T00:36:06;95.55;;;53.58;;
45318;SDS011;31057;48.498;32.260;2023-02-01T00:38:09;97.40;;;54.58;;
45318;SDS011;31057;48.498;32.260;2023-02-01T00:42:13;95.28;;;52.90;;
45318;SDS011;31057;48.498;32.260;2023-02-01T00:44:15;94.05;;;52.13;;
45318;SDS011;31057;48.498;32.260;2023-02-01T00:48:19;105.25;;;53.65;;
45318;SDS011;31057;48.498;32.260;2023-02-01T00:50:24;110.40;;;56.13;;
45318;SDS011;31057;48.498;32.260;2023-02-01T00:52:26;114.75;;;60.47;;
45318;SDS011;31057;48.498;32.260;2023-02-01T00:54:27;124.95;;;61.17;;
45318;SDS011;31057;48.498;32.260;2023-02-01T00:56:29;141.07;;;70.97;;
45318;SDS011;31057;48.498;32.260;2023-02-01T00:58:32;146.88;;;73.65;;
45318;SDS011;31057;48.498;32.260;2023-02-01T01:00:34;132.30;;;70.07;;
45318;SDS011;31057;48.498;32.260;2023-02-01T01:04:38;129.50;;;63.92;;
45318;SDS011;31057;48.498;32.260;2023-02-01T01:06:40;118.70;;;59.50;;
45318;SDS011;31057;48.498;32.260;2023-02-01T01:08:42;111.63;;;58.33;;
45318;SDS011;31057;48.498;32.260;2023-02-01T01:10:44;118.85;;;55.92;;
45318;SDS011;31057;48.498;32.260;2023-02-01T01:12:46;115.10;;;54.65;;
45318;SDS011;31057;48.498;32.260;2023-02-01T01:14:48;115.10;;;62.00;;
45318;SDS011;31057;48.498;32.260;2023-02-01T01:18:52;111.32;;;56.28;;
45318;SDS011;31057;48.498;32.260;2023-02-01T01:20:54;111.80;;;57.30;;
45318;SDS011;31057;48.498;32.260;2023-02-01T01:22:56;104.68;;;56.22;;
45318;SDS011;31057;48.498;32.260;2023-02-01T01:24:58;109.30;;;54.88;;
45318;SDS011;31057;48.498;32.260;2023-02-01T01:27:01;119.75;;;60.28;;
45318;SDS011;31057;48.498;32.260;2023-02-01T01:29:04;115.68;;;61.35;;
45318;SDS011;31057;48.498;32.260;2023-02-01T01:31:09;118.47;;;64.00;;
45318;SDS011;31057;48.498;32.260;2023-02-01T01:33:12;110.07;;;60.13;;
45318;SDS011;31057;48.498;32.260;2023-02-01T01:35:15;124.72;;;61.55;;
45318;SDS011;31057;48.498;32.260;2023-02-01T01:37:17;112.88;;;61.85;;
45318;SDS011;31057;48.498;32.260;2023-02-01T01:39:18;114.70;;;60.63;;
45318;SDS011;31057;48.498;32.260;2023-02-01T01:41:22;117.15;;;62.42;;
45318;SDS011;31057;48.498;32.260;2023-02-01T01:43:44;119.78;;;74.10;;
45318;SDS011;31057;48.498;32.260;2023-02-01T01:45:49;119.28;;;66.75;;
45318;SDS011;31057;48.498;32.260;2023-02-01T01:47:52;107.57;;;58.80;;
45318;SDS011;31057;48.498;32.260;2023-02-01T01:50:23;95.78;;;52.58;;
45318;SDS011;31057;48.498;32.260;2023-02-01T01:52:49;102.03;;;52.03;;
45318;SDS011;31057;48.498;32.260;2023-02-01T01:54:53;118.35;;;62.55;;
45318;SDS011;31057;48.498;32.260;2023-02-01T01:56:56;163.73;;;88.47;;
45318;SDS011;31057;48.498;32.260;2023-02-01T01:59:01;158.85;;;81.93;;
45318;SDS011;31057;48.498;32.260;2023-02-01T02:01:04;284.75;;;148.60;;
45318;SDS011;31057;48.498;32.260;2023-02-01T04:14:15;125.57;;;64.13;;
45318;SDS011;31057;48.498;32.260;2023-02-01T04:16:17;105.32;;;55.15;;
45318;SDS011;31057;48.498;32.260;2023-02-01T04:18:19;104.10;;;54.53;;
45318;SDS011;31057;48.498;32.260;2023-02-01T04:20:21;100.30;;;53.15;;
45318;SDS011;31057;48.498;32.260;2023-02-01T04:22:23;94.60;;;51.72;;
45318;SDS011;31057;48.498;32.260;2023-02-01T04:24:25;80.30;;;43.90;;
45318;SDS011;31057;48.498;32.260;2023-02-01T04:26:27;86.50;;;48.28;;
45318;SDS011;31057;48.498;32.260;2023-02-01T04:28:29;83.20;;;43.70;;
45318;SDS011;31057;48.498;32.260;2023-02-01T04:30:31;79.07;;;45.75;;
45318;SDS011;31057;48.498;32.260;2023-02-01T04:32:34;77.88;;;43.92;;
45318;SDS011;31057;48.498;32.260;2023-02-01T04:34:36;90.13;;;49.33;;
45318;SDS011;31057;48.498;32.260;2023-02-01T04:36:38;75.70;;;42.10;;
45318;SDS011;31057;48.498;32.260;2023-02-01T04:38:40;70.88;;;39.38;;
45318;SDS011;31057;48.498;32.260;2023-02-01T04:40:42;77.60;;;45.38;;
45318;SDS011;31057;48.498;32.260;2023-02-01T04:42:44;90.10;;;48.30;;
45318;SDS011;31057;48.498;32.260;2023-02-01T04:44:45;87.53;;;52.20;;
45318;SDS011;31057;48.498;32.260;2023-02-01T04:48:49;91.32;;;53.83;;
45318;SDS011;31057;48.498;32.260;2023-02-01T04:50:51;117.47;;;64.32;;
45318;SDS011;31057;48.498;32.260;2023-02-01T04:52:53;114.75;;;65.60;;
45318;SDS011;31057;48.498;32.260;2023-02-01T04:54:55;106.18;;;60.67;;
45318;SDS011;31057;48.498;32.260;2023-02-01T04:56:59;114.55;;;68.30;;
45318;SDS011;31057;48.498;32.260;2023-02-01T05:01:04;144.13;;;77.88;;
45318;SDS011;31057;48.498;32.260;2023-02-01T05:03:07;131.45;;;69.25;;
45318;SDS011;31057;48.498;32.260;2023-02-01T05:05:09;137.48;;;74.93;;
45318;SDS011;31057;48.498;32.260;2023-02-01T05:07:11;128.75;;;67.65;;
45318;SDS011;31057;48.498;32.260;2023-02-01T05:09:13;127.95;;;74.00;;
45318;SDS011;31057;48.498;32.260;2023-02-01T05:11:15;145.60;;;82.00;;
45318;SDS011;31057;48.498;32.260;2023-02-01T05:13:35;124.47;;;75.60;;
45318;SDS011;31057;48.498;32.260;2023-02-01T05:15:50;103.45;;;60.53;;
45318;SDS011;31057;48.498;32.260;2023-02-01T05:17:52;105.63;;;61.95;;
45318;SDS011;31057;48.498;32.260;2023-02-01T05:19:54;102.65;;;59.30;;
45318;SDS011;31057;48.498;32.260;2023-02-01T05:21:56;95.80;;;58.38;;
45318;SDS011;31057;48.498;32.260;2023-02-01T05:23:58;93.72;;;57.03;;
45318;SDS011;31057;48.498;32.260;2023-02-01T05:26:14;98.45;;;59.60;;
45318;SDS011;31057;48.498;32.260;2023-02-01T05:28:16;101.82;;;60.70;;
45318;SDS011;31057;48.498;32.260;2023-02-01T05:30:18;83.30;;;49.63;;
45318;SDS011;31057;48.498;32.260;2023-02-01T05:32:20;95.50;;;57.13;;
45318;SDS011;31057;48.498;32.260;2023-02-01T05:34:23;86.50;;;49.75;;
45318;SDS011;31057;48.498;32.260;2023-02-01T05:38:27;80.85;;;42.78;;
45318;SDS011;31057;48.498;32.260;2023-02-01T05:40:30;97.93;;;54.25;;
45318;SDS011;31057;48.498;32.260;2023-02-01T05:42:32;91.55;;;51.22;;
45318;SDS011;31057;48.498;32.260;2023-02-01T05:44:34;92.97;;;51.10;;
45318;SDS011;31057;48.498;32.260;2023-02-01T05:46:36;77.03;;;44.53;;
45318;SDS011;31057;48.498;32.260;2023-02-01T05:50:40;83.18;;;47.33;;
45318;SDS011;31057;48.498;32.260;2023-02-01T05:54:47;75.38;;;41.42;;
45318;SDS011;31057;48.498;32.260;2023-02-01T05:56:49;73.07;;;39.95;;
45318;SDS011;31057;48.498;32.260;2023-02-01T05:58:51;78.40;;;44.08;;
45318;SDS011;31057;48.498;32.260;2023-02-01T08:15:35;58.13;;;39.40;;
45318;SDS011;31057;48.498;32.260;2023-02-01T08:17:37;61.97;;;41.15;;
45318;SDS011;31057;48.498;32.260;2023-02-01T08:19:39;56.50;;;35.70;;
45318;SDS011;31057;48.498;32.260;2023-02-01T08:21:41;50.63;;;32.88;;
45318;SDS011;31057;48.498;32.260;2023-02-01T08:23:43;56.75;;;33.72;;
45318;SDS011;31057;48.498;32.260;2023-02-01T08:25:45;56.38;;;31.17;;
45318;SDS011;31057;48.498;32.260;2023-02-01T08:27:49;43.55;;;29.02;;
45318;SDS011;31057;48.498;32.260;2023-02-01T08:29:52;43.03;;;24.25;;
45318;SDS011;31057;48.498;32.260;2023-02-01T08:31:55;45.00;;;26.40;;
45318;SDS011;31057;48.498;32.260;2023-02-01T08:33:58;55.13;;;30.13;;
45318;SDS011;31057;48.498;32.260;2023-02-01T08:36:02;46.92;;;29.33;;
45318;SDS011;31057;48.498;32.260;2023-02-01T08:38:08;51.55;;;30.02;;
45318;SDS011;31057;48.498;32.260;2023-02-01T08:42:12;44.42;;;26.02;;
45318;SDS011;31057;48.498;32.260;2023-02-01T08:44:32;44.60;;;24.42;;
45318;SDS011;31057;48.498;32.260;2023-02-01T08:46:36;56.22;;;32.35;;
45318;SDS011;31057;48.498;32.260;2023-02-01T08:48:38;67.32;;;29.85;;
45318;SDS011;31057;48.498;32.260;2023-02-01T08:50:40;45.50;;;26.63;;
45318;SDS011;31057;48.498;32.260;2023-02-01T08:52:42;41.53;;;24.42;;
45318;SDS011;31057;48.498;32.260;2023-02-01T08:54:44;46.17;;;23.92;;
45318;SDS011;31057;48.498;32.260;2023-02-01T08:56:46;40.53;;;22.05;;
45318;SDS011;31057;48.498;32.260;2023-02-01T08:58:48;29.33;;;18.02;;
45318;SDS011;31057;48.498;32.260;2023-02-01T09:00:50;32.88;;;17.38;;
45318;SDS011;31057;48.498;32.260;2023-02-01T09:02:52;23.92;;;15.57;;
45318;SDS011;31057;48.498;32.260;2023-02-01T09:04:55;30.08;;;16.58;;
45318;SDS011;31057;48.498;32.260;2023-02-01T09:06:57;29.67;;;16.65;;
45318;SDS011;31057;48.498;32.260;2023-02-01T09:08:59;25.05;;;14.50;;
45318;SDS011;31057;48.498;32.260;2023-02-01T09:11:01;23.15;;;14.73;;
45318;SDS011;31057;48.498;32.260;2023-02-01T09:13:05;25.45;;;15.50;;
45318;SDS011;31057;48.498;32.260;2023-02-01T09:15:08;27.15;;;14.25;;
45318;SDS011;31057;48.498;32.260;2023-02-01T09:17:11;21.88;;;12.88;;
45318;SDS011;31057;48.498;32.260;2023-02-01T09:19:14;22.23;;;12.88;;
45318;SDS011;31057;48.498;32.260;2023-02-01T09:21:26;18.90;;;11.82;;
45318;SDS011;31057;48.498;32.260;2023-02-01T09:25:30;21.10;;;13.27;;
45318;SDS011;31057;48.498;32.260;2023-02-01T09:27:32;23.40;;;12.60;;
45318;SDS011;31057;48.498;32.260;2023-02-01T09:31:36;20.70;;;10.80;;
45318;SDS011;31057;48.498;32.260;2023-02-01T09:33:44;19.17;;;11.88;;
45318;SDS011;31057;48.498;32.260;2023-02-01T09:35:46;18.23;;;11.05;;
45318;SDS011;31057;48.498;32.260;2023-02-01T09:37:47;19.50;;;12.88;;
45318;SDS011;31057;48.498;32.260;2023-02-01T09:39:49;18.33;;;12.05;;
45318;SDS011;31057;48.498;32.260;2023-02-01T09:46:44;17.83;;;12.00;;
45318;SDS011;31057;48.498;32.260;2023-02-01T09:48:46;22.98;;;11.98;;
45318;SDS011;31057;48.498;32.260;2023-02-01T09:50:55;18.95;;;12.13;;
45318;SDS011;31057;48.498;32.260;2023-02-01T09:53:00;20.13;;;11.18;;
45318;SDS011;31057;48.498;32.260;2023-02-01T09:55:16;15.55;;;10.75;;
45318;SDS011;31057;48.498;32.260;2023-02-01T09:57:36;25.08;;;11.50;;
45318;SDS011;31057;48.498;32.260;2023-02-01T09:59:46;17.83;;;11.25;;
45318;SDS011;31057;48.498;32.260;2023-02-01T10:01:52;17.35;;;12.13;;
45318;SDS011;31057;48.498;32.260;2023-02-01T10:03:59;19.35;;;12.15;;
45318;SDS011;31057;48.498;32.260;2023-02-01T10:06:19;16.60;;;10.80;;
45318;SDS011;31057;48.498;32.260;2023-02-01T10:11:27;17.80;;;10.52;;
45318;SDS011;31057;48.498;32.260;2023-02-01T10:22:59;14.20;;;9.93;;
45318;SDS011;31057;48.498;32.260;2023-02-01T10:26:31;11.93;;;8.05;;
45318;SDS011;31057;48.498;32.260;2023-02-01T10:28:06;19.30;;;8.77;;
45318;SDS011;31057;48.498;32.260;2023-02-01T10:30:57;14.20;;;7.68;;
45318;SDS011;31057;48.498;32.260;2023-02-01T10:32:43;16.23;;;9.18;;
45318;SDS011;31057;48.498;32.260;2023-02-01T10:37:00;15.80;;;7.10;;
45318;SDS011;31057;48.498;32.260;2023-02-01T10:39:03;15.98;;;8.90;;
45318;SDS011;31057;48.498;32.260;2023-02-01T10:41:12;17.75;;;9.85;;
45318;SDS011;31057;48.498;32.260;2023-02-01T10:43:20;18.83;;;9.35;;
45318;SDS011;31057;48.498;32.260;2023-02-01T10:45:25;17.88;;;10.35;;
45318;SDS011;31057;48.498;32.260;2023-02-01T10:47:29;15.35;;;8.75;;
45318;SDS011;31057;48.498;32.260;2023-02-01T10:49:38;15.57;;;9.05;;
45318;SDS011;31057;48.498;32.260;2023-02-01T10:51:52;15.70;;;9.10;;
45318;SDS011;31057;48.498;32.260;2023-02-01T10:54:17;15.98;;;9.02;;
45318;SDS011;31057;48.498;32.260;2023-02-01T10:56:22;12.00;;;7.28;;
45318;SDS011;31057;48.498;32.260;2023-02-01T10:58:27;15.07;;;7.13;;
45318;SDS011;31057;48.498;32.260;2023-02-01T11:00:43;16.25;;;8.20;;
45318;SDS011;31057;48.498;32.260;2023-02-01T11:02:49;13.65;;;6.90;;
45318;SDS011;31057;48.498;32.260;2023-02-01T11:04:57;17.25;;;7.57;;
45318;SDS011;31057;48.498;32.260;2023-02-01T11:07:06;14.30;;;6.97;;
45318;SDS011;31057;48.498;32.260;2023-02-01T11:09:21;10.95;;;5.78;;
45318;SDS011;31057;48.498;32.260;2023-02-01T11:11:25;10.03;;;5.60;;
45318;SDS011;31057;48.498;32.260;2023-02-01T11:13:30;12.20;;;6.00;;
45318;SDS011;31057;48.498;32.260;2023-02-01T11:15:37;15.57;;;8.68;;
45318;SDS011;31057;48.498;32.260;2023-02-01T11:17:45;19.63;;;8.68;;
45318;SDS011;31057;48.498;32.260;2023-02-01T11:19:56;17.55;;;8.25;;
45318;SDS011;31057;48.498;32.260;2023-02-01T11:22:00;18.80;;;9.65;;
45318;SDS011;31057;48.498;32.260;2023-02-01T11:26:25;12.07;;;6.72;;
45318;SDS011;31057;48.498;32.260;2023-02-01T11:28:29;15.70;;;7.65;;
45318;SDS011;31057;48.498;32.260;2023-02-01T11:30:34;16.17;;;7.13;;
45318;SDS011;31057;48.498;32.260;2023-02-01T11:32:41;14.80;;;7.95;;
45318;SDS011;31057;48.498;32.260;2023-02-01T11:34:47;17.52;;;8.40;;
45318;SDS011;31057;48.498;32.260;2023-02-01T11:36:53;16.63;;;7.25;;
45318;SDS011;31057;48.498;32.260;2023-02-01T11:41:14;15.30;;;8.57;;
45318;SDS011;31057;48.498;32.260;2023-02-01T11:45:32;18.33;;;7.82;;
45318;SDS011;31057;48.498;32.260;2023-02-01T11:47:39;16.58;;;7.22;;
45318;SDS011;31057;48.498;32.260;2023-02-01T11:49:42;16.60;;;9.32;;
45318;SDS011;31057;48.498;32.260;2023-02-01T11:54:15;19.50;;;10.67;;
45318;SDS011;31057;48.498;32.260;2023-02-01T12:15:35;14.25;;;6.60;;
45318;SDS011;31057;48.498;32.260;2023-02-01T12:24:51;14.35;;;7.00;;
45318;SDS011;31057;48.498;32.260;2023-02-01T12:27:05;13.85;;;6.25;;
45318;SDS011;31057;48.498;32.260;2023-02-01T12:29:26;11.40;;;6.20;;
45318;SDS011;31057;48.498;32.260;2023-02-01T12:38:44;18.70;;;7.35;;
45318;SDS011;31057;48.498;32.260;2023-02-01T12:41:08;19.58;;;8.93;;
45318;SDS011;31057;48.498;32.260;2023-02-01T12:45:49;15.98;;;7.15;;
45318;SDS011;31057;48.498;32.260;2023-02-01T12:50:29;16.73;;;8.35;;
45318;SDS011;31057;48.498;32.260;2023-02-01T12:52:50;12.88;;;6.22;;
45318;SDS011;31057;48.498;32.260;2023-02-01T12:55:41;18.90;;;8.77;;
45318;SDS011;31057;48.498;32.260;2023-02-01T12:57:26;14.75;;;6.03;;
45318;SDS011;31057;48.498;32.260;2023-02-01T12:59:36;14.48;;;6.20;;
45318;SDS011;31057;48.498;32.260;2023-02-01T13:04:17;14.65;;;7.18;;
45318;SDS011;31057;48.498;32.260;2023-02-01T13:06:29;14.20;;;7.47;;
45318;SDS011;31057;48.498;32.260;2023-02-01T13:08:39;15.23;;;8.18;;
45318;SDS011;31057;48.498;32.260;2023-02-01T13:10:47;14.13;;;7.65;;
45318;SDS011;31057;48.498;32.260;2023-02-01T13:17:31;15.82;;;8.55;;
45318;SDS011;31057;48.498;32.260;2023-02-01T13:19:42;16.85;;;6.25;;
45318;SDS011;31057;48.498;32.260;2023-02-01T13:21:54;17.50;;;8.48;;
45318;SDS011;31057;48.498;32.260;2023-02-01T13:26:06;11.80;;;6.60;;
45318;SDS011;31057;48.498;32.260;2023-02-01T13:28:13;9.85;;;6.53;;
45318;SDS011;31057;48.498;32.260;2023-02-01T13:30:23;17.20;;;9.55;;
45318;SDS011;31057;48.498;32.260;2023-02-01T13:32:48;24.27;;;13.02;;
45318;SDS011;31057;48.498;32.260;2023-02-01T13:35:47;28.67;;;12.45;;
45318;SDS011;31057;48.498;32.260;2023-02-01T13:38:09;31.15;;;15.00;;
45318;SDS011;31057;48.498;32.260;2023-02-01T13:40:30;45.90;;;25.52;;
45318;SDS011;31057;48.498;32.260;2023-02-01T13:43:01;47.47;;;24.23;;
45318;SDS011;31057;48.498;32.260;2023-02-01T13:45:15;48.22;;;24.55;;
45318;SDS011;31057;48.498;32.260;2023-02-01T13:47:24;48.08;;;27.67;;
45318;SDS011;31057;48.498;32.260;2023-02-01T13:49:36;45.25;;;26.70;;
45318;SDS011;31057;48.498;32.260;2023-02-01T13:51:41;38.20;;;22.13;;
45318;SDS011;31057;48.498;32.260;2023-02-01T13:53:46;32.63;;;19.08;;
45318;SDS011;31057;48.498;32.260;2023-02-01T13:58:21;23.42;;;13.00;;
45318;SDS011;31057;48.498;32.260;2023-02-01T14:00:33;25.13;;;15.77;;
45318;SDS011;31057;48.498;32.260;2023-02-01T16:15:51;25.02;;;14.82;;
45318;SDS011;31057;48.498;32.260;2023-02-01T16:19:55;21.27;;;12.48;;
45318;SDS011;31057;48.498;32.260;2023-02-01T16:21:58;23.20;;;12.70;;
45318;SDS011;31057;48.498;32.260;2023-02-01T16:24:00;22.40;;;14.23;;
45318;SDS011;31057;48.498;32.260;2023-02-01T16:26:05;23.67;;;14.93;;
45318;SDS011;31057;48.498;32.260;2023-02-01T16:28:07;27.80;;;15.73;;
45318;SDS011;31057;48.498;32.260;2023-02-01T16:30:11;28.17;;;14.13;;
45318;SDS011;31057;48.498;32.260;2023-02-01T16:32:15;28.05;;;15.15;;
45318;SDS011;31057;48.498;32.260;2023-02-01T16:34:19;28.75;;;15.40;;
45318;SDS011;31057;48.498;32.260;2023-02-01T16:38:24;31.90;;;15.52;;
45318;SDS011;31057;48.498;32.260;2023-02-01T16:40:28;22.13;;;14.25;;
45318;SDS011;31057;48.498;32.260;2023-02-01T16:44:32;23.63;;;14.43;;
45318;SDS011;31057;48.498;32.260;2023-02-01T16:46:35;21.02;;;13.30;;
45318;SDS011;31057;48.498;32.260;2023-02-01T16:48:46;19.55;;;13.10;;
45318;SDS011;31057;48.498;32.260;2023-02-01T16:50:53;25.92;;;13.13;;
45318;SDS011;31057;48.498;32.260;2023-02-01T16:53:00;22.77;;;12.85;;
45318;SDS011;31057;48.498;32.260;2023-02-01T16:55:07;23.35;;;13.52;;
45318;SDS011;31057;48.498;32.260;2023-02-01T16:57:15;20.05;;;13.88;;
45318;SDS011;31057;48.498;32.260;2023-02-01T16:59:18;24.67;;;14.90;;
45318;SDS011;31057;48.498;32.260;2023-02-01T17:03:22;19.88;;;12.90;;
45318;SDS011;31057;48.498;32.260;2023-02-01T17:05:24;24.33;;;13.90;;
45318;SDS011;31057;48.498;32.260;2023-02-01T17:07:27;21.25;;;13.40;;
45318;SDS011;31057;48.498;32.260;2023-02-01T17:11:31;24.33;;;13.35;;
45318;SDS011;31057;48.498;32.260;2023-02-01T17:13:33;18.35;;;13.20;;
45318;SDS011;31057;48.498;32.260;2023-02-01T17:15:35;20.65;;;13.05;;
45318;SDS011;31057;48.498;32.260;2023-02-01T17:17:38;20.63;;;12.98;;
45318;SDS011;31057;48.498;32.260;2023-02-01T17:19:44;21.25;;;13.82;;
45318;SDS011;31057;48.498;32.260;2023-02-01T17:22:09;19.55;;;13.75;;
45318;SDS011;31057;48.498;32.260;2023-02-01T17:26:17;20.45;;;13.25;;
45318;SDS011;31057;48.498;32.260;2023-02-01T17:28:19;19.38;;;13.18;;
45318;SDS011;31057;48.498;32.260;2023-02-01T17:30:21;22.45;;;13.70;;
45318;SDS011;31057;48.498;32.260;2023-02-01T17:32:38;24.42;;;14.63;;
45318;SDS011;31057;48.498;32.260;2023-02-01T17:34:40;26.30;;;15.38;;
45318;SDS011;31057;48.498;32.260;2023-02-01T17:36:44;26.48;;;15.55;;
45318;SDS011;31057;48.498;32.260;2023-02-01T17:38:47;26.80;;;16.88;;
45318;SDS011;31057;48.498;32.260;2023-02-01T17:41:05;23.60;;;14.75;;
45318;SDS011;31057;48.498;32.260;2023-02-01T17:43:25;48.72;;;35.70;;
45318;SDS011;31057;48.498;32.260;2023-02-01T17:45:32;24.55;;;16.60;;
45318;SDS011;31057;48.498;32.260;2023-02-01T17:47:38;27.90;;;15.15;;
45318;SDS011;31057;48.498;32.260;2023-02-01T17:51:42;25.50;;;15.43;;
45318;SDS011;31057;48.498;32.260;2023-02-01T17:55:46;21.40;;;14.52;;
45318;SDS011;31057;48.498;32.260;2023-02-01T17:59:50;22.42;;;13.23;;
45318;SDS011;31057;48.498;32.260;2023-02-01T20:15:19;23.90;;;17.60;;
45318;SDS011;31057;48.498;32.260;2023-02-01T20:17:26;23.63;;;16.40;;
45318;SDS011;31057;48.498;32.260;2023-02-01T20:19:28;21.95;;;15.88;;
45318;SDS011;31057;48.498;32.260;2023-02-01T20:21:31;25.55;;;15.52;;
45318;SDS011;31057;48.498;32.260;2023-02-01T20:23:34;21.88;;;16.55;;
45318;SDS011;31057;48.498;32.260;2023-02-01T20:25:37;26.38;;;15.52;;
45318;SDS011;31057;48.498;32.260;2023-02-01T20:29:41;24.65;;;17.38;;
45318;SDS011;31057;48.498;32.260;2023-02-01T20:33:46;33.30;;;20.30;;
45318;SDS011;31057;48.498;32.260;2023-02-01T20:35:48;29.38;;;21.50;;
45318;SDS011;31057;48.498;32.260;2023-02-01T20:37:50;31.42;;;21.05;;
45318;SDS011;31057;48.498;32.260;2023-02-01T20:39:53;31.23;;;19.25;;
45318;SDS011;31057;48.498;32.260;2023-02-01T20:41:55;25.35;;;19.30;;
45318;SDS011;31057;48.498;32.260;2023-02-01T20:45:59;22.48;;;17.10;;
45318;SDS011;31057;48.498;32.260;2023-02-01T20:48:01;31.13;;;19.35;;
45318;SDS011;31057;48.498;32.260;2023-02-01T20:50:03;28.65;;;17.92;;
45318;SDS011;31057;48.498;32.260;2023-02-01T20:52:06;26.60;;;16.27;;
45318;SDS011;31057;48.498;32.260;2023-02-01T20:54:08;23.77;;;17.55;;
45318;SDS011;31057;48.498;32.260;2023-02-01T20:56:10;32.05;;;22.33;;
45318;SDS011;31057;48.498;32.260;2023-02-01T20:58:13;29.08;;;20.05;;
45318;SDS011;31057;48.498;32.260;2023-02-01T21:00:15;32.30;;;23.40;;
45318;SDS011;31057;48.498;32.260;2023-02-01T21:02:19;23.17;;;16.42;;
45318;SDS011;31057;48.498;32.260;2023-02-01T21:04:25;28.17;;;18.40;;
45318;SDS011;31057;48.498;32.260;2023-02-01T21:06:27;31.83;;;19.90;;
45318;SDS011;31057;48.498;32.260;2023-02-01T21:08:30;31.80;;;19.25;;
45318;SDS011;31057;48.498;32.260;2023-02-01T21:10:32;31.20;;;22.30;;
45318;SDS011;31057;48.498;32.260;2023-02-01T21:12:35;29.27;;;21.58;;
45318;SDS011;31057;48.498;32.260;2023-02-01T21:14:37;34.38;;;22.40;;
45318;SDS011;31057;48.498;32.260;2023-02-01T21:16:39;29.15;;;20.00;;
45318;SDS011;31057;48.498;32.260;2023-02-01T21:18:41;30.80;;;20.42;;
45318;SDS011;31057;48.498;32.260;2023-02-01T21:20:44;29.85;;;19.20;;
45318;SDS011;31057;48.498;32.260;2023-02-01T21:22:47;31.17;;;22.60;;
45318;SDS011;31057;48.498;32.260;2023-02-01T21:24:49;34.15;;;22.13;;
45318;SDS011;31057;48.498;32.260;2023-02-01T21:26:51;32.78;;;21.05;;
45318;SDS011;31057;48.498;32.260;2023-02-01T21:28:54;29.52;;;19.90;;
45318;SDS011;31057;48.498;32.260;2023-02-01T21:30:57;25.13;;;17.55;;
45318;SDS011;31057;48.498;32.260;2023-02-01T21:35:01;32.50;;;19.83;;
45318;SDS011;31057;48.498;32.260;2023-02-01T21:37:04;40.25;;;30.45;;
45318;SDS011;31057;48.498;32.260;2023-02-01T21:41:08;30.83;;;21.50;;
45318;SDS011;31057;48.498;32.260;2023-02-01T21:43:29;30.00;;;19.35;;
45318;SDS011;31057;48.498;32.260;2023-02-01T21:47:33;29.88;;;20.00;;
45318;SDS011;31057;48.498;32.260;2023-02-01T21:49:37;36.80;;;29.70;;
45318;SDS011;31057;48.498;32.260;2023-02-01T21:51:40;31.15;;;23.20;;
45318;SDS011;31057;48.498;32.260;2023-02-01T21:53:43;33.00;;;26.42;;
45318;SDS011;31057;48.498;32.260;2023-02-01T21:57:47;29.85;;;16.83;;
45318;SDS011;31057;48.498;32.260;2023-02-01T21:59:51;27.50;;;16.75;;
45318;SDS011;31057;48.498;32.260;2023-02-01T22:01:53;23.83;;;14.82;;
